PILOTS ONLINE: 213    ATC ONLINE: 21

KTRK

Truckee Tahoe Airport

Location

City Truckee
Country  United States
Latitude 39° 19' 12" N
Longitude 120° 8' 23" W
Elevation 5900 ft
Type Medium Airport

Map

Weather

METAR
2014/09/02 08:55
KTRK 020855Z AUTO 00000KT 10SM CLR 07/03 A3013 RMK AO2
TAF
2014/09/02 06:24
TAF KTRK 020521Z 0206/0306 VRB03KT P6SM SKC 
     FM022000 24010G19KT P6SM SKC 
     FM030400 VRB03KT P6SM SKC 
      AMD NOT SKED 0206/0212

Runways

01/19 4650 ft / 75 ft
10/28 7000 ft / 100 ft

Outbound flights

Callsign Flying to Pilot ATD/STD ETA Aircraft

Inbound flights

Callsign Flying from Pilot ATD ETA Aircraft